Time;durP1;ratioP1;P1;durP2;ratioP2;P2;SDS_P1;SDS_P2;PMS_P1;PMS_P2;Temp;Humidity;BMP_temperature;BMP_pressure;BME280_temperature;BME280_humidity;BME280_pressure;Samples;Min_cycle;Max_cycle;Signal;HPM_P1;HPM_P2
2023/08/24 00:01:11;;;;;;;10.00;3.80;;;15.60;99.90;;;;;;5074167;28;19940;-63
2023/08/24 00:03:51;;;;;;;10.80;4.18;;;15.60;99.90;;;;;;5056136;28;20115;-62
2023/08/24 00:06:32;;;;;;;9.25;4.28;;;15.60;99.90;;;;;;5065419;28;20037;-64
2023/08/24 00:09:04;;;;;;;;;;;15.60;99.90;;;;;;5075230;28;20021;-64
2023/08/24 00:11:31;;;;;;;8.65;4.05;;;15.60;99.90;;;;;;5056972;28;19916;-65
2023/08/24 00:13:58;;;;;;;7.20;3.70;;;15.60;99.90;;;;;;5078844;28;20051;-65
2023/08/24 00:16:23;;;;;;;;;;;15.60;99.90;;;;;;5077303;28;20040;-64
2023/08/24 00:18:49;;;;;;;6.28;4.10;;;15.60;99.90;;;;;;5065729;28;19920;-65
2023/08/24 00:21:16;;;;;;;;;;;15.50;99.90;;;;;;5056622;28;20071;-65
2023/08/24 00:23:43;;;;;;;;;;;15.50;99.90;;;;;;5066112;28;19916;-65
2023/08/24 00:26:09;;;;;;;11.90;4.43;;;15.50;99.90;;;;;;5063920;28;20446;-64
2023/08/24 00:28:34;;;;;;;;;;;15.50;99.90;;;;;;5063789;28;20667;-63
2023/08/24 00:31:00;;;;;;;7.68;4.20;;;15.50;99.90;;;;;;5055110;28;20308;-64
2023/08/24 00:33:26;;;;;;;13.38;4.22;;;15.50;99.90;;;;;;5055181;28;20074;-63
2023/08/24 00:35:51;;;;;;;;;;;15.50;99.90;;;;;;5055871;28;20780;-63
2023/08/24 00:38:17;;;;;;;8.65;4.25;;;15.40;99.90;;;;;;5062103;28;19920;-64
2023/08/24 00:40:43;;;;;;;7.05;4.60;;;15.40;99.90;;;;;;5063984;28;20079;-64
2023/08/24 00:43:09;;;;;;;7.85;4.28;;;15.40;99.90;;;;;;5045543;28;20029;-64
2023/08/24 00:45:35;;;;;;;;;;;15.30;99.90;;;;;;5049347;28;20519;-63
2023/08/24 00:48:02;;;;;;;7.32;4.10;;;15.30;99.90;;;;;;5065328;28;19974;-65
2023/08/24 00:50:27;;;;;;;9.63;4.50;;;15.30;99.90;;;;;;5055327;28;20048;-65
2023/08/24 00:52:53;;;;;;;;;;;15.30;99.90;;;;;;5064531;28;20021;-65
2023/08/24 00:55:20;;;;;;;14.43;3.90;;;15.30;99.90;;;;;;5063627;28;20602;-65
2023/08/24 00:57:47;;;;;;;8.30;4.40;;;15.30;99.90;;;;;;5057412;28;20182;-64
2023/08/24 01:00:13;;;;;;;10.98;4.10;;;15.30;99.90;;;;;;5054220;28;20488;-64
2023/08/24 01:02:39;;;;;;;9.25;4.60;;;15.30;99.90;;;;;;5062400;28;20086;-65
2023/08/24 01:05:05;;;;;;;;;;;15.30;99.90;;;;;;5058001;28;20025;-65
2023/08/24 01:07:32;;;;;;;8.13;3.72;;;15.30;99.90;;;;;;5062909;28;19977;-67
2023/08/24 01:09:58;;;;;;;6.35;3.72;;;15.30;99.90;;;;;;5055362;28;20453;-65
2023/08/24 01:12:24;;;;;;;;;;;15.30;99.90;;;;;;5064200;28;20043;-65
2023/08/24 01:15:03;;;;;;;11.23;4.72;;;15.40;99.90;;;;;;5056626;28;20487;-65
2023/08/24 01:17:30;;;;;;;8.48;4.25;;;15.40;99.90;;;;;;5061379;28;20127;-64
2023/08/24 01:19:58;;;;;;;6.88;4.55;;;15.40;99.90;;;;;;5050280;28;20048;-66
2023/08/24 01:22:26;;;;;;;6.25;3.97;;;15.50;99.90;;;;;;5063161;28;20109;-64
2023/08/24 01:25:20;;;;;;;7.53;4.68;;;15.50;99.90;;;;;;5056714;28;20047;-65
2023/08/24 01:27:48;;;;;;;11.57;4.50;;;15.40;99.90;;;;;;5060114;28;20094;-64
2023/08/24 01:30:17;;;;;;;9.75;4.60;;;15.40;99.90;;;;;;5061446;28;20032;-64
2023/08/24 01:32:43;;;;;;;8.50;4.28;;;15.30;99.90;;;;;;5061917;28;20094;-64
2023/08/24 01:35:09;;;;;;;;;;;15.30;99.90;;;;;;5063864;28;20037;-64
2023/08/24 01:37:35;;;;;;;18.73;4.38;;;15.30;99.90;;;;;;5063102;28;19916;-63
2023/08/24 01:40:19;;;;;;;8.45;4.70;;;15.20;99.90;;;;;;5042190;28;20045;-63
2023/08/24 01:42:52;;;;;;;10.77;5.03;;;15.20;99.90;;;;;;5058059;28;20499;-63
2023/08/24 01:45:19;;;;;;;9.80;4.63;;;15.20;99.90;;;;;;5063304;28;20119;-63
2023/08/24 01:47:47;;;;;;;14.60;5.25;;;15.20;99.90;;;;;;5061893;28;20033;-63
2023/08/24 01:50:13;;;;;;;12.45;4.38;;;15.20;99.90;;;;;;5060395;28;20051;-64
2023/08/24 01:52:39;;;;;;;10.57;4.78;;;15.10;99.90;;;;;;5058546;28;20033;-64
2023/08/24 01:55:05;;;;;;;8.02;4.32;;;15.10;99.90;;;;;;5064065;28;20024;-64
2023/08/24 01:57:31;;;;;;;;;;;15.20;99.90;;;;;;5065304;28;20044;-64
2023/08/24 01:59:57;;;;;;;11.98;4.30;;;15.20;99.90;;;;;;5061664;28;20384;-64
2023/08/24 02:02:23;;;;;;;;;;;15.20;99.90;;;;;;5061046;28;20033;-64
2023/08/24 02:04:49;;;;;;;11.32;4.82;;;15.10;99.90;;;;;;5058366;28;19941;-64
2023/08/24 02:07:14;;;;;;;;;;;15.10;99.90;;;;;;5062986;28;20037;-63
2023/08/24 02:09:40;;;;;;;11.13;4.15;;;15.10;99.90;;;;;;5058940;28;20348;-63
2023/08/24 02:12:05;;;;;;;;;;;15.10;99.90;;;;;;5057857;28;20047;-63
2023/08/24 02:14:31;;;;;;;6.93;4.25;;;15.00;99.90;;;;;;5062353;28;19923;-63
2023/08/24 02:16:56;;;;;;;;;;;15.10;99.90;;;;;;5063136;28;20043;-64
2023/08/24 02:19:22;;;;;;;5.25;3.80;;;15.10;99.90;;;;;;5056183;28;19924;-64
2023/08/24 02:21:47;;;;;;;;;;;15.00;99.90;;;;;;5061186;28;20039;-64
2023/08/24 02:24:13;;;;;;;9.80;4.57;;;15.00;99.90;;;;;;5063046;28;19919;-63
2023/08/24 02:26:38;;;;;;;;;;;15.00;99.90;;;;;;5062600;28;21133;-64
2023/08/24 02:29:04;;;;;;;7.72;4.68;;;15.00;99.90;;;;;;5078061;28;19923;-64
2023/08/24 02:31:30;;;;;;;;;;;14.90;99.90;;;;;;5060976;28;20143;-64
2023/08/24 02:33:56;;;;;;;8.55;3.78;;;14.90;99.90;;;;;;5071341;28;20447;-63
2023/08/24 02:36:21;;;;;;;11.23;4.45;;;14.90;99.90;;;;;;5062303;28;20067;-63
2023/08/24 02:38:47;;;;;;;;;;;14.80;99.90;;;;;;5063365;28;20488;-63
2023/08/24 02:41:14;;;;;;;7.57;4.60;;;14.80;99.90;;;;;;5069912;28;20418;-63
2023/08/24 02:43:40;;;;;;;9.50;4.45;;;14.80;99.90;;;;;;5063453;28;20041;-63
2023/08/24 02:46:07;;;;;;;;;;;14.80;99.90;;;;;;5062965;28;20562;-63
2023/08/24 02:48:33;;;;;;;9.18;4.60;;;14.70;99.90;;;;;;5062789;28;19923;-65
2023/08/24 02:51:00;;;;;;;6.00;3.80;;;14.70;99.90;;;;;;5062628;28;20044;-65
2023/08/24 02:53:26;;;;;;;10.38;4.43;;;14.80;99.90;;;;;;5062819;28;20090;-64
2023/08/24 02:55:51;;;;;;;12.00;4.50;;;14.80;99.90;;;;;;5063002;28;20036;-65
2023/08/24 02:58:17;;;;;;;;;;;14.80;99.90;;;;;;5058771;28;20028;-65
2023/08/24 03:00:42;;;;;;;7.80;4.25;;;14.80;99.90;;;;;;5067642;28;19920;-65
2023/08/24 03:03:08;;;;;;;;;;;14.80;99.90;;;;;;5062765;28;20059;-65
2023/08/24 03:05:33;;;;;;;8.20;3.67;;;14.90;99.90;;;;;;5060670;28;19924;-65
2023/08/24 03:08:00;;;;;;;11.82;4.75;;;14.80;99.90;;;;;;5061749;28;20444;-65
2023/08/24 03:10:25;;;;;;;8.13;4.25;;;14.80;99.90;;;;;;5061019;28;20109;-65
2023/08/24 03:12:51;;;;;;;;;;;14.70;99.90;;;;;;5062313;28;20462;-65
2023/08/24 03:15:17;;;;;;;10.48;4.40;;;14.70;99.90;;;;;;5061637;28;19917;-64
2023/08/24 03:17:43;;;;;;;8.93;4.18;;;14.80;99.90;;;;;;5060809;28;20040;-64
2023/08/24 03:20:12;;;;;;;6.03;4.15;;;14.70;99.90;;;;;;5059084;28;20131;-64
2023/08/24 03:22:38;;;;;;;10.10;3.95;;;14.80;99.90;;;;;;5058320;28;20393;-65
2023/08/24 03:25:04;;;;;;;;;;;14.80;99.90;;;;;;5059468;28;20492;-64
2023/08/24 03:27:30;;;;;;;7.53;4.38;;;14.80;99.90;;;;;;5053252;28;19940;-65
2023/08/24 03:29:55;;;;;;;;;;;14.80;99.90;;;;;;5060422;28;20482;-64
2023/08/24 03:32:21;;;;;;;7.53;3.95;;;14.80;99.90;;;;;;5060737;28;19924;-65
2023/08/24 03:34:46;;;;;;;5.50;3.60;;;14.70;99.90;;;;;;5061060;28;20543;-65
2023/08/24 03:37:12;;;;;;;;;;;14.70;99.90;;;;;;5059625;28;20040;-65
2023/08/24 03:39:38;;;;;;;11.48;4.13;;;14.70;99.90;;;;;;5061198;28;19939;-64
2023/08/24 03:42:04;;;;;;;;;;;14.70;99.90;;;;;;5062619;28;20040;-65
2023/08/24 03:44:30;;;;;;;10.05;4.65;;;14.70;99.90;;;;;;5061804;28;19920;-65
2023/08/24 03:46:55;;;;;;;;;;;14.70;99.90;;;;;;5062338;28;20044;-65
2023/08/24 03:49:21;;;;;;;7.85;4.43;;;14.60;99.90;;;;;;5056367;28;19928;-64
2023/08/24 03:51:46;;;;;;;7.20;4.63;;;14.60;99.90;;;;;;5060856;28;20040;-64
2023/08/24 03:54:12;;;;;;;;;;;14.50;99.90;;;;;;5060749;28;20123;-64
2023/08/24 03:56:37;;;;;;;7.65;3.90;;;14.50;99.90;;;;;;5064814;28;19934;-64
2023/08/24 03:59:03;;;;;;;;;;;14.50;99.90;;;;;;5064444;28;20457;-64
2023/08/24 04:01:29;;;;;;;11.75;4.18;;;14.50;99.90;;;;;;5063083;28;19928;-64
2023/08/24 04:03:54;;;;;;;;;;;14.50;99.90;;;;;;5062482;28;20516;-64
2023/08/24 04:06:20;;;;;;;9.07;3.92;;;14.50;99.90;;;;;;5064744;28;19951;-64
2023/08/24 04:08:45;;;;;;;;;;;14.50;99.90;;;;;;5064711;28;20523;-65
2023/08/24 04:11:11;;;;;;;7.47;3.95;;;14.60;99.90;;;;;;5064833;28;20709;-64
2023/08/24 04:13:36;;;;;;;;;;;14.60;99.90;;;;;;5064825;28;20028;-62
2023/08/24 04:16:03;;;;;;;5.90;3.58;;;14.60;99.90;;;;;;5056066;28;19916;-64
2023/08/24 04:18:29;;;;;;;10.80;4.55;;;14.60;99.90;;;;;;5061678;28;20076;-64
2023/08/24 04:20:55;;;;;;;;;;;14.70;99.90;;;;;;5063699;28;20068;-64
2023/08/24 04:23:29;;;;;;;5.88;3.70;;;14.70;99.90;;;;;;5063943;28;19920;-63
2023/08/24 04:25:55;;;;;;;10.23;4.10;;;14.60;99.90;;;;;;5059582;28;20045;-65
2023/08/24 04:28:20;;;;;;;;;;;14.70;99.90;;;;;;5058629;28;20042;-65
2023/08/24 04:31:04;;;;;;;6.32;3.80;;;14.70;99.90;;;;;;5066200;28;19912;-64
2023/08/24 04:33:30;;;;;;;11.20;4.05;;;14.70;99.90;;;;;;5061579;28;20041;-64
2023/08/24 04:35:55;;;;;;;;;;;14.80;99.90;;;;;;5058856;28;20788;-65
2023/08/24 04:38:21;;;;;;;6.35;4.10;;;14.80;99.90;;;;;;5064550;28;20313;-63
2023/08/24 04:40:51;;;;;;;12.65;4.00;;;14.80;99.90;;;;;;5063874;28;20045;-64
2023/08/24 04:43:17;;;;;;;5.85;3.90;;;14.80;99.90;;;;;;5065398;28;20036;-64
2023/08/24 04:45:42;;;;;;;8.80;4.43;;;14.80;99.90;;;;;;5064605;28;21379;-64
2023/08/24 04:48:08;;;;;;;;;;;14.80;99.90;;;;;;5065264;28;20601;-64
2023/08/24 04:50:33;;;;;;;9.88;5.25;;;14.90;99.90;;;;;;5061712;28;19964;-64
2023/08/24 04:52:59;;;;;;;6.60;4.07;;;14.90;99.90;;;;;;5064498;28;20040;-63
2023/08/24 04:55:24;;;;;;;;;;;14.90;99.90;;;;;;5059583;28;20184;-66
2023/08/24 04:57:50;;;;;;;8.55;3.90;;;15.00;99.90;;;;;;5061465;28;19974;-65
2023/08/24 05:00:16;;;;;;;;;;;15.10;99.90;;;;;;5063158;28;20107;-65
2023/08/24 05:02:44;;;;;;;10.80;3.60;;;15.10;99.90;;;;;;5063154;28;20419;-65
2023/08/24 05:05:10;;;;;;;6.65;3.40;;;15.20;99.90;;;;;;5063452;28;20068;-65
2023/08/24 05:07:38;;;;;;;;;;;15.30;99.90;;;;;;5057239;28;20087;-65
2023/08/24 05:10:05;;;;;;;10.07;4.07;;;15.30;99.90;;;;;;5053968;28;19921;-65
2023/08/24 05:12:32;;;;;;;14.73;3.72;;;15.50;99.90;;;;;;5059714;28;20117;-65
2023/08/24 05:14:57;;;;;;;13.43;3.85;;;15.50;99.90;;;;;;5060183;28;20642;-65
2023/08/24 05:17:24;;;;;;;;;;;15.60;99.90;;;;;;5058771;28;20067;-65
2023/08/24 05:19:56;;;;;;;7.10;3.83;;;15.70;99.90;;;;;;5075451;28;19920;-65
2023/08/24 05:22:22;;;;;;;8.85;3.85;;;15.70;99.90;;;;;;5044769;28;20585;-64
2023/08/24 05:24:47;;;;;;;;;;;15.70;99.90;;;;;;5056336;28;20040;-65
2023/08/24 05:27:13;;;;;;;8.65;3.70;;;15.80;99.90;;;;;;5062284;28;20024;-65
2023/08/24 05:29:39;;;;;;;7.80;3.60;;;15.80;99.90;;;;;;5060330;28;20057;-64
2023/08/24 05:32:04;;;;;;;;;;;15.80;99.90;;;;;;5061175;28;20082;-65
2023/08/24 05:34:30;;;;;;;7.45;4.10;;;15.80;99.90;;;;;;5059667;28;20058;-65
2023/08/24 05:36:56;;;;;;;12.82;3.70;;;15.80;99.90;;;;;;5070827;28;20143;-65
2023/08/24 05:39:21;;;;;;;;;;;15.80;99.90;;;;;;5060028;28;20556;-65
2023/08/24 05:41:50;;;;;;;7.38;3.47;;;15.80;99.90;;;;;;5062619;28;19919;-65
2023/08/24 05:44:16;;;;;;;9.70;3.95;;;15.80;99.90;;;;;;5063778;28;20047;-65
2023/08/24 05:46:42;;;;;;;8.20;3.53;;;15.80;99.90;;;;;;5059151;28;20430;-64
2023/08/24 05:49:08;;;;;;;;;;;15.90;99.90;;;;;;5063545;28;20035;-65
2023/08/24 05:51:34;;;;;;;9.32;4.00;;;15.90;99.90;;;;;;5061797;28;19916;-65
2023/08/24 05:54:00;;;;;;;;;;;16.00;99.90;;;;;;5062592;28;20115;-65
2023/08/24 05:56:25;;;;;;;7.35;3.30;;;16.00;99.90;;;;;;5063154;28;20006;-65
2023/08/24 05:58:51;;;;;;;9.05;3.80;;;16.10;99.90;;;;;;5054693;28;20312;-65
2023/08/24 06:01:17;;;;;;;;;;;16.10;99.90;;;;;;5062206;28;20032;-65
2023/08/24 06:03:43;;;;;;;6.68;3.50;;;16.20;99.90;;;;;;5062729;28;20295;-65
2023/08/24 06:06:09;;;;;;;6.43;3.28;;;16.20;99.90;;;;;;5061630;28;20048;-65
2023/08/24 06:08:35;;;;;;;11.00;3.90;;;16.30;99.90;;;;;;5058970;28;20098;-65
2023/08/24 06:11:01;;;;;;;;;;;16.40;99.90;;;;;;5059118;28;20338;-64
2023/08/24 06:13:26;;;;;;;9.63;4.68;;;16.50;99.90;;;;;;5052509;28;19917;-64
2023/08/24 06:15:53;;;;;;;11.63;5.15;;;16.60;99.90;;;;;;5050918;28;20072;-64
2023/08/24 06:18:18;;;;;;;14.77;5.05;;;16.70;99.90;;;;;;5054107;28;20029;-64
2023/08/24 06:20:45;;;;;;;;;;;16.70;99.90;;;;;;5060687;28;20036;-64
2023/08/24 06:23:13;;;;;;;11.07;4.50;;;16.70;99.90;;;;;;5053877;28;19917;-64
2023/08/24 06:25:38;;;;;;;10.02;4.55;;;16.80;99.90;;;;;;5058538;28;20063;-64
2023/08/24 06:28:04;;;;;;;;;;;16.80;99.90;;;;;;5056963;28;20028;-63
2023/08/24 06:30:36;;;;;;;13.27;4.80;;;16.80;99.90;;;;;;5055760;28;19927;-63
2023/08/24 06:33:03;;;;;;;13.20;6.63;;;16.80;99.90;;;;;;5058995;28;20828;-64
2023/08/24 06:35:29;;;;;;;14.45;6.38;;;16.80;99.90;;;;;;5057599;28;20668;-63
2023/08/24 06:37:54;;;;;;;;;;;16.80;99.90;;;;;;5076745;28;20536;-64
2023/08/24 06:40:20;;;;;;;16.00;6.80;;;16.80;99.90;;;;;;5061749;28;19916;-63
2023/08/24 06:42:46;;;;;;;17.38;5.93;;;16.90;99.90;;;;;;5058665;28;20040;-63
2023/08/24 06:45:12;;;;;;;10.85;5.32;;;16.90;99.90;;;;;;5050549;28;20492;-63
2023/08/24 06:47:38;;;;;;;;;;;16.90;99.90;;;;;;5059826;28;20148;-64
2023/08/24 06:50:05;;;;;;;20.25;4.88;;;16.90;99.90;;;;;;5044231;28;19923;-64
2023/08/24 06:52:30;;;;;;;10.68;4.45;;;16.90;99.90;;;;;;5058000;28;20056;-64
2023/08/24 06:54:56;;;;;;;;;;;16.90;99.90;;;;;;5053235;28;20040;-63
2023/08/24 06:57:22;;;;;;;14.93;5.80;;;16.90;99.90;;;;;;5054954;28;19921;-62
2023/08/24 06:59:47;;;;;;;11.40;6.18;;;16.90;99.90;;;;;;5061938;28;20708;-64
2023/08/24 07:02:13;;;;;;;12.35;6.40;;;16.90;99.90;;;;;;5060831;28;20048;-63
2023/08/24 07:04:40;;;;;;;;;;;17.00;99.90;;;;;;5062642;28;20676;-65
2023/08/24 07:07:06;;;;;;;11.18;6.50;;;17.00;99.90;;;;;;5059203;28;19929;-63
2023/08/24 07:09:32;;;;;;;13.85;5.75;;;17.10;99.90;;;;;;5059393;28;20512;-65
2023/08/24 07:11:57;;;;;;;;;;;17.10;99.90;;;;;;5061117;28;20032;-67
2023/08/24 07:14:23;;;;;;;11.32;5.45;;;17.10;99.90;;;;;;5059680;28;20039;-65
2023/08/24 07:16:49;;;;;;;;;;;17.10;99.90;;;;;;5062072;28;20072;-66
2023/08/24 07:19:15;;;;;;;11.43;7.38;;;17.10;99.90;;;;;;5058803;28;19967;-63
2023/08/24 07:21:40;;;;;;;18.17;6.78;;;17.20;99.90;;;;;;5056669;28;20040;-63
2023/08/24 07:24:06;;;;;;;13.82;7.03;;;17.20;99.90;;;;;;5076930;28;20045;-63
2023/08/24 07:26:32;;;;;;;20.38;6.95;;;17.30;99.90;;;;;;5061612;28;20093;-63
2023/08/24 07:28:59;;;;;;;13.45;6.38;;;17.30;99.90;;;;;;5064058;28;20131;-63
2023/08/24 07:31:25;;;;;;;14.68;6.35;;;17.40;99.90;;;;;;5062668;28;20462;-63
2023/08/24 07:33:50;;;;;;;;;;;17.40;99.90;;;;;;5054540;28;20048;-63
2023/08/24 07:36:16;;;;;;;13.48;5.15;;;17.50;99.90;;;;;;5064625;28;19916;-64
2023/08/24 07:38:42;;;;;;;10.68;5.43;;;17.60;99.90;;;;;;5064461;28;20062;-64
2023/08/24 07:41:09;;;;;;;15.10;5.78;;;17.60;99.90;;;;;;5058783;28;20036;-65
2023/08/24 07:43:35;;;;;;;14.63;5.68;;;17.70;99.90;;;;;;5066810;28;20075;-63
2023/08/24 07:46:00;;;;;;;;;;;17.70;99.90;;;;;;5062014;28;20080;-67
2023/08/24 07:48:26;;;;;;;11.70;5.15;;;17.70;99.90;;;;;;5067354;28;19916;-64
2023/08/24 07:50:51;;;;;;;11.20;4.90;;;17.80;99.90;;;;;;5067018;28;20043;-64
2023/08/24 07:53:17;;;;;;;8.45;4.07;;;17.90;99.90;;;;;;5065483;28;20055;-64
2023/08/24 07:55:43;;;;;;;7.88;4.10;;;18.00;99.90;;;;;;5066266;28;20397;-62
2023/08/24 07:58:09;;;;;;;9.70;4.20;;;18.00;99.90;;;;;;5065431;28;20059;-62
2023/08/24 08:00:34;;;;;;;;;;;18.00;99.90;;;;;;5065242;28;20473;-62
2023/08/24 08:03:00;;;;;;;8.45;4.03;;;18.10;99.90;;;;;;5065717;28;19920;-62
2023/08/24 08:05:26;;;;;;;13.40;3.63;;;18.20;99.90;;;;;;5063297;28;20093;-63
2023/08/24 08:07:52;;;;;;;8.15;3.30;;;18.30;99.90;;;;;;5063505;28;20062;-63
2023/08/24 08:10:17;;;;;;;;;;;18.30;99.90;;;;;;5065387;28;20040;-63
2023/08/24 08:12:43;;;;;;;11.85;4.25;;;18.40;99.90;;;;;;5065417;28;19951;-62
2023/08/24 08:15:09;;;;;;;7.55;4.10;;;18.40;99.90;;;;;;5065296;28;20041;-63
2023/08/24 08:17:34;;;;;;;;;;;18.50;99.90;;;;;;5066513;28;20044;-62
2023/08/24 08:20:00;;;;;;;10.20;4.13;;;18.50;99.90;;;;;;5057115;28;19920;-63
2023/08/24 08:22:26;;;;;;;8.63;4.32;;;18.60;99.90;;;;;;5074531;28;20442;-62
2023/08/24 08:24:54;;;;;;;;;;;18.60;99.90;;;;;;5061484;28;20075;-62
2023/08/24 08:27:20;;;;;;;11.82;3.58;;;18.60;99.90;;;;;;5060060;28;19935;-63
2023/08/24 08:29:46;;;;;;;6.45;3.00;;;18.60;99.90;;;;;;5062015;28;20037;-62
2023/08/24 08:32:12;;;;;;;;;;;18.70;99.90;;;;;;5058504;28;20055;-62
2023/08/24 08:34:38;;;;;;;8.15;3.42;;;18.80;99.90;;;;;;5065399;28;20344;-62
2023/08/24 08:37:03;;;;;;;;;;;18.80;99.90;;;;;;5065656;28;20587;-63
2023/08/24 08:39:30;;;;;;;7.25;3.50;;;18.80;99.90;;;;;;5073520;28;19947;-63
2023/08/24 08:41:56;;;;;;;10.88;3.65;;;18.90;99.90;;;;;;5055678;28;20052;-62
2023/08/24 08:44:22;;;;;;;;;;;18.90;99.90;;;;;;5055154;28;20045;-62
2023/08/24 08:46:49;;;;;;;7.45;3.13;;;19.00;99.90;;;;;;5065119;28;19932;-62
2023/08/24 08:49:17;;;;;;;8.32;2.95;;;19.00;99.90;;;;;;5064051;28;20048;-63
2023/08/24 08:51:43;;;;;;;8.82;3.17;;;19.10;99.90;;;;;;5067815;28;20141;-63
2023/08/24 08:54:08;;;;;;;;;;;19.30;99.90;;;;;;5059435;28;20088;-64
2023/08/24 08:56:35;;;;;;;3.35;2.15;;;19.50;99.90;;;;;;5059153;28;19932;-63
2023/08/24 08:59:04;;;;;;;9.23;3.60;;;19.70;99.90;;;;;;5061524;28;20037;-63
2023/08/24 09:01:30;;;;;;;6.57;2.80;;;19.90;99.90;;;;;;5055199;28;20187;-64
2023/08/24 09:03:56;;;;;;;;;;;20.20;99.90;;;;;;5058106;28;20590;-63
2023/08/24 09:06:22;;;;;;;5.82;2.47;;;20.50;99.90;;;;;;5060592;28;20022;-63
2023/08/24 09:08:50;;;;;;;7.15;2.50;;;20.80;99.90;;;;;;5058748;28;20048;-63
2023/08/24 09:11:18;;;;;;;6.43;2.67;;;21.10;99.90;;;;;;5055726;28;20167;-63
2023/08/24 09:13:46;;;;;;;7.05;2.10;;;21.20;99.90;;;;;;5062581;28;20543;-63
2023/08/24 09:16:15;;;;;;;6.93;2.08;;;21.50;99.90;;;;;;5063997;28;20731;-63
2023/08/24 09:18:46;;;;;;;10.50;2.83;;;21.60;99.90;;;;;;5062143;28;20040;-63
2023/08/24 09:21:13;;;;;;;3.40;2.00;;;21.80;99.90;;;;;;5064130;28;20094;-63
2023/08/24 09:23:52;;;;;;;10.65;2.97;;;21.90;99.90;;;;;;5062747;28;20554;-62
2023/08/24 09:26:34;;;;;;;6.20;2.72;;;22.10;99.90;;;;;;5056522;28;20048;-64
2023/08/24 09:29:11;;;;;;;5.22;2.45;;;22.40;99.90;;;;;;5058906;28;20476;-62
2023/08/24 09:31:38;;;;;;;7.97;2.20;;;22.50;99.90;;;;;;5055799;28;20035;-63
2023/08/24 09:34:05;;;;;;;10.57;4.05;;;22.60;99.90;;;;;;5055453;28;20107;-64
2023/08/24 09:36:35;;;;;;;4.15;2.35;;;22.70;99.90;;;;;;5055330;28;20132;-63
2023/08/24 09:39:04;;;;;;;5.57;2.47;;;22.90;99.90;;;;;;5047374;28;20060;-64
2023/08/24 09:41:49;;;;;;;4.38;1.95;;;23.10;99.90;;;;;;5063227;28;20044;-63
2023/08/24 09:44:17;;;;;;;5.32;2.35;;;23.30;99.90;;;;;;5063168;28;20059;-63
2023/08/24 09:46:43;;;;;;;4.25;2.13;;;23.40;99.90;;;;;;5064248;28;20500;-64
2023/08/24 09:49:11;;;;;;;3.50;2.08;;;23.50;99.90;;;;;;5063643;28;20044;-64
2023/08/24 09:51:39;;;;;;;7.82;2.40;;;23.60;99.90;;;;;;5061075;28;20471;-63
2023/08/24 09:54:08;;;;;;;7.95;2.80;;;23.50;99.90;;;;;;5051030;28;20033;-64
2023/08/24 09:56:37;;;;;;;4.00;2.20;;;23.60;99.90;;;;;;5061808;28;20040;-63
2023/08/24 09:59:07;;;;;;;2.45;1.80;;;23.70;99.90;;;;;;5061135;28;20066;-63
2023/08/24 10:01:34;;;;;;;6.45;2.20;;;23.80;99.90;;;;;;5055275;28;20078;-65
2023/08/24 10:04:03;;;;;;;3.70;2.03;;;23.80;99.90;;;;;;5063029;28;20044;-64
2023/08/24 10:06:29;;;;;;;6.18;2.70;;;23.80;99.90;;;;;;5060119;28;20644;-63
2023/08/24 10:09:00;;;;;;;4.72;1.92;;;23.90;99.90;;;;;;5064529;28;20104;-63
2023/08/24 10:11:28;;;;;;;4.72;2.58;;;23.90;99.90;;;;;;5062450;28;20563;-65
2023/08/24 10:14:10;;;;;;;7.82;2.30;;;24.00;99.90;;;;;;5053674;28;20122;-63
2023/08/24 10:16:37;;;;;;;6.85;2.92;;;24.10;99.90;;;;;;5057761;28;20037;-62
2023/08/24 10:19:03;;;;;;;3.70;1.90;;;24.10;99.90;;;;;;5055315;28;20040;-62
2023/08/24 10:21:29;;;;;;;6.03;2.45;;;24.10;99.90;;;;;;5058397;28;20040;-62
2023/08/24 10:23:56;;;;;;;5.05;2.35;;;24.10;99.90;;;;;;5059459;28;20036;-63
2023/08/24 10:26:23;;;;;;;11.10;2.10;;;24.20;99.90;;;;;;5051971;28;20045;-63
2023/08/24 10:28:51;;;;;;;4.57;2.50;;;24.30;99.60;;;;;;5060045;28;20028;-63
2023/08/24 10:31:17;;;;;;;3.17;1.80;;;24.30;99.80;;;;;;5055671;28;20040;-63
2023/08/24 10:33:45;;;;;;;4.60;2.35;;;24.30;99.90;;;;;;5063388;28;20056;-63
2023/08/24 10:36:13;;;;;;;5.57;2.13;;;24.30;99.50;;;;;;5063044;28;20047;-63
2023/08/24 10:38:43;;;;;;;5.70;2.35;;;24.40;99.20;;;;;;5071372;28;20487;-62
2023/08/24 10:41:09;;;;;;;4.00;2.28;;;24.40;99.90;;;;;;5070804;28;20047;-63
2023/08/24 10:43:39;;;;;;;4.43;1.92;;;24.50;99.50;;;;;;5072892;28;20036;-63
2023/08/24 10:46:11;;;;;;;3.60;2.08;;;24.60;99.60;;;;;;5063425;28;20048;-62
2023/08/24 10:48:44;;;;;;;4.70;2.22;;;24.60;99.80;;;;;;5055059;28;20048;-63
2023/08/24 10:53:43;;;;;;;6.05;2.10;;;24.70;99.90;;;;;;5055653;28;20059;-65
2023/08/24 10:56:16;;;;;;;6.55;2.10;;;24.80;99.90;;;;;;5063243;28;20032;-62
2023/08/24 10:58:44;;;;;;;19.83;2.35;;;24.90;99.90;;;;;;5055626;28;20114;-63
2023/08/24 11:01:21;;;;;;;3.35;2.03;;;25.00;99.20;;;;;;5061632;28;20041;-62
2023/08/24 11:03:54;;;;;;;2.97;1.80;;;24.90;99.30;;;;;;5063599;28;20036;-63
2023/08/24 11:06:25;;;;;;;3.90;2.00;;;24.80;99.10;;;;;;5064614;28;20221;-63
2023/08/24 11:09:13;;;;;;;4.88;2.35;;;24.90;98.70;;;;;;5058401;28;20488;-62
2023/08/24 11:11:40;;;;;;;7.70;2.38;;;25.00;98.70;;;;;;5059771;28;20082;-63
2023/08/24 11:14:21;;;;;;;4.95;2.15;;;25.00;97.90;;;;;;5055342;28;20067;-63
2023/08/24 11:16:48;;;;;;;5.82;2.25;;;25.00;98.80;;;;;;5062274;28;20047;-63
2023/08/24 11:19:15;;;;;;;5.35;2.22;;;25.10;98.30;;;;;;5051495;28;20048;-63
2023/08/24 11:21:42;;;;;;;5.10;1.98;;;25.10;96.80;;;;;;5061091;28;20132;-62
2023/08/24 11:24:12;;;;;;;5.68;2.45;;;25.10;97.90;;;;;;5056714;28;20036;-63
2023/08/24 11:26:43;;;;;;;5.45;2.00;;;25.10;97.80;;;;;;5062491;28;20036;-62
2023/08/24 11:29:09;;;;;;;4.80;1.95;;;25.20;98.60;;;;;;5057222;28;20056;-62
2023/08/24 11:31:36;;;;;;;5.72;2.10;;;25.10;98.60;;;;;;5063967;28;20036;-64
2023/08/24 11:34:02;;;;;;;4.18;2.20;;;25.10;97.70;;;;;;5057557;28;20677;-64
2023/08/24 11:36:28;;;;;;;6.20;1.90;;;25.10;98.10;;;;;;5059031;28;20205;-63
2023/08/24 11:38:59;;;;;;;5.03;2.40;;;25.10;98.00;;;;;;5062893;28;20515;-63
2023/08/24 11:41:26;;;;;;;4.35;1.88;;;25.00;98.50;;;;;;5054953;28;20033;-63
2023/08/24 11:43:59;;;;;;;8.73;1.80;;;24.90;98.40;;;;;;5062851;28;20077;-62
2023/08/24 11:46:27;;;;;;;4.57;2.13;;;24.80;98.30;;;;;;5062393;28;20032;-64
2023/08/24 11:48:53;;;;;;;3.70;2.13;;;24.80;97.50;;;;;;5052563;28;20048;-64
2023/08/24 11:51:18;;;;;;;16.27;3.13;;;24.70;98.40;;;;;;5055184;28;20059;-60
2023/08/24 11:53:45;;;;;;;3.63;1.92;;;24.70;99.30;;;;;;5061786;28;20036;-61
2023/08/24 11:56:16;;;;;;;5.15;1.90;;;24.70;98.80;;;;;;5046572;28;20037;-64
2023/08/24 11:58:43;;;;;;;4.78;1.98;;;24.70;99.40;;;;;;5055034;28;20573;-61
2023/08/24 12:01:11;;;;;;;6.30;2.53;;;24.50;99.60;;;;;;5061989;28;20040;-62
2023/08/24 12:03:38;;;;;;;4.00;2.00;;;24.50;99.70;;;;;;5056657;28;20036;-63
2023/08/24 12:06:14;;;;;;;8.95;1.98;;;24.60;99.90;;;;;;5051228;28;20075;-63
2023/08/24 12:08:47;;;;;;;4.95;2.25;;;24.80;99.60;;;;;;5054404;28;20052;-63
2023/08/24 12:11:20;;;;;;;5.13;2.10;;;24.80;99.30;;;;;;5061027;28;20074;-62
2023/08/24 12:13:48;;;;;;;3.10;2.17;;;24.90;99.90;;;;;;5054573;28;20675;-63
2023/08/24 12:16:16;;;;;;;3.63;2.35;;;24.90;99.90;;;;;;5057033;28;20463;-62
2023/08/24 12:18:55;;;;;;;4.95;2.40;;;24.90;99.50;;;;;;5065387;28;20512;-61
2023/08/24 12:21:22;;;;;;;6.40;2.88;;;25.00;99.90;;;;;;5077804;28;20185;-61
2023/08/24 12:24:05;;;;;;;5.65;2.80;;;25.00;99.80;;;;;;5055569;28;20044;-62
2023/08/24 12:26:35;;;;;;;5.53;2.50;;;25.00;99.90;;;;;;5054636;28;20419;-63
2023/08/24 12:29:03;;;;;;;8.23;2.60;;;25.00;99.30;;;;;;5059927;28;20521;-63
2023/08/24 12:31:32;;;;;;;5.32;2.60;;;25.00;99.90;;;;;;5054479;28;20033;-62
2023/08/24 12:34:01;;;;;;;9.52;2.30;;;25.10;99.90;;;;;;5069798;28;20403;-64
2023/08/24 12:36:29;;;;;;;7.95;3.00;;;25.20;99.80;;;;;;5062355;28;20110;-65
2023/08/24 12:39:03;;;;;;;4.90;2.17;;;25.30;99.90;;;;;;5064742;28;20047;-62
2023/08/24 12:41:29;;;;;;;8.43;2.80;;;25.40;99.90;;;;;;5058536;28;20041;-63
2023/08/24 12:43:54;;;;;;;8.38;2.58;;;25.30;99.90;;;;;;5061073;28;20086;-63
2023/08/24 12:46:20;;;;;;;5.10;2.28;;;25.20;99.70;;;;;;5054549;28;20048;-63
2023/08/24 12:48:46;;;;;;;3.67;2.00;;;25.00;99.90;;;;;;5058277;28;20515;-64
2023/08/24 12:51:12;;;;;;;5.88;2.40;;;24.90;99.90;;;;;;5058957;28;20043;-64
2023/08/24 12:53:38;;;;;;;4.20;2.25;;;24.80;99.90;;;;;;5055026;28;20051;-63
2023/08/24 12:56:03;;;;;;;7.38;2.40;;;24.70;99.90;;;;;;5065123;28;20622;-63
2023/08/24 12:58:29;;;;;;;6.35;1.80;;;24.60;99.90;;;;;;5081901;28;20079;-63
2023/08/24 13:00:55;;;;;;;4.07;2.28;;;24.60;99.90;;;;;;5059675;28;20423;-64
2023/08/24 13:03:20;;;;;;;4.40;1.90;;;24.70;99.90;;;;;;5050482;28;20511;-63
2023/08/24 13:05:47;;;;;;;2.55;1.92;;;24.70;99.90;;;;;;5059144;28;20036;-63